Time;durP1;ratioP1;P1;durP2;ratioP2;P2;SDS_P1;SDS_P2;PMS_P1;PMS_P2;Temp;Humidity;BMP_temperature;BMP_pressure;BME280_temperature;BME280_humidity;BME280_pressure;Samples;Min_cycle;Max_cycle;Signal;HPM_P1;HPM_P2
2024/01/25 00:01:58;;;;;;;14.73;3.53;;;;;;;8.04;80.94;101439.50;5002321;28;20297;-71
2024/01/25 00:04:24;;;;;;;18.67;3.73;;;;;;;8.01;81.13;101442.28;5006879;28;20217;-70
2024/01/25 00:06:52;;;;;;;16.30;3.27;;;;;;;8.04;81.09;101436.84;5005665;28;20217;-72
2024/01/25 00:09:19;;;;;;;18.73;3.47;;;;;;;8.05;81.01;101438.59;5001944;28;20207;-72
2024/01/25 00:11:45;;;;;;;21.50;4.43;;;;;;;8.01;81.42;101445.78;5007657;28;20207;-72
2024/01/25 00:14:12;;;;;;;14.03;3.57;;;;;;;7.99;81.18;101445.00;5002740;28;20215;-71
2024/01/25 00:16:41;;;;;;;24.20;4.40;;;;;;;7.98;81.41;101437.94;5005630;28;20237;-71
2024/01/25 00:19:08;;;;;;;21.93;4.13;;;;;;;7.99;81.54;101442.34;5002064;28;20211;-72
2024/01/25 00:21:35;;;;;;;27.57;4.83;;;;;;;8.00;81.72;101432.59;5005537;28;20589;-71
2024/01/25 00:24:03;;;;;;;20.53;3.97;;;;;;;7.97;81.23;101441.53;5004575;28;20721;-72
2024/01/25 00:26:29;;;;;;;20.97;3.97;;;;;;;7.98;81.44;101440.59;5003523;28;20242;-73
2024/01/25 00:28:56;;;;;;;23.50;5.20;;;;;;;7.98;81.95;101442.38;4997458;28;20203;-71
2024/01/25 00:31:22;;;;;;;21.13;4.50;;;;;;;7.99;81.65;101452.06;5005567;28;20217;-71
2024/01/25 00:33:49;;;;;;;24.10;5.60;;;;;;;7.99;81.76;101454.72;5002947;28;20696;-71
2024/01/25 00:36:17;;;;;;;22.93;3.93;;;;;;;7.99;82.18;101449.44;5005808;28;20231;-71
2024/01/25 00:38:44;;;;;;;21.50;4.07;;;;;;;7.96;81.81;101460.16;5004028;28;20586;-72
2024/01/25 00:41:18;;;;;;;16.77;4.00;;;;;;;7.93;81.67;101449.66;5005964;28;20209;-71
2024/01/25 00:43:45;;;;;;;24.30;4.23;;;;;;;7.94;81.56;101462.00;5002714;28;20563;-71
2024/01/25 00:46:12;;;;;;;22.30;4.20;;;;;;;7.91;81.71;101457.69;5004849;28;20240;-71
2024/01/25 00:48:40;;;;;;;16.90;3.73;;;;;;;7.91;82.14;101464.75;5001085;28;20222;-72
2024/01/25 00:51:08;;;;;;;16.70;4.13;;;;;;;7.91;82.13;101470.06;5001435;28;20237;-72
2024/01/25 00:53:36;;;;;;;19.77;4.10;;;;;;;7.92;81.82;101472.66;5003316;28;20754;-71
2024/01/25 00:56:03;;;;;;;19.27;4.37;;;;;;;7.91;81.68;101464.75;5005817;28;20227;-71
2024/01/25 00:58:31;;;;;;;19.17;4.43;;;;;;;7.90;81.66;101471.84;5004410;28;20561;-71
2024/01/25 01:00:58;;;;;;;21.13;4.47;;;;;;;7.91;81.27;101493.94;5003905;28;20210;-71
2024/01/25 01:03:26;;;;;;;23.10;4.53;;;;;;;7.92;81.06;101482.41;5003252;28;20209;-72
2024/01/25 01:05:53;;;;;;;17.23;3.67;;;;;;;7.90;81.20;101486.91;5005261;28;20240;-71
2024/01/25 01:08:20;;;;;;;13.30;3.67;;;;;;;7.91;81.09;101496.59;5003470;28;20217;-72
2024/01/25 01:10:46;;;;;;;17.53;4.77;;;;;;;7.90;81.24;101481.59;5000430;28;20223;-70
2024/01/25 01:13:13;;;;;;;15.30;3.67;;;;;;;7.89;81.16;101478.09;5001363;28;20671;-72
2024/01/25 01:15:41;;;;;;;21.73;4.60;;;;;;;7.90;80.97;101492.22;5001416;28;20232;-72
2024/01/25 01:18:07;;;;;;;17.70;3.63;;;;;;;7.88;81.03;101480.81;4995692;28;20219;-72
2024/01/25 01:20:34;;;;;;;16.17;3.50;;;;;;;7.86;81.41;101480.88;5001744;28;20213;-71
2024/01/25 01:23:01;;;;;;;20.67;5.10;;;;;;;7.86;80.91;101469.41;5005225;28;20211;-72
2024/01/25 01:25:27;;;;;;;11.87;4.50;;;;;;;7.84;81.62;101468.59;5004106;28;20277;-71
2024/01/25 01:27:54;;;;;;;17.97;3.27;;;;;;;7.82;81.22;101467.78;5004972;28;20217;-71
2024/01/25 01:30:20;;;;;;;16.40;3.13;;;;;;;7.80;82.04;101477.59;5000312;28;20207;-72
2024/01/25 01:32:48;;;;;;;18.03;3.97;;;;;;;7.78;81.67;101482.94;5000565;28;20210;-71
2024/01/25 01:35:15;;;;;;;18.33;3.97;;;;;;;7.77;82.06;101481.22;5003814;28;20237;-73
2024/01/25 01:37:42;;;;;;;20.27;3.73;;;;;;;7.75;82.10;101487.50;5004922;28;20302;-71
2024/01/25 01:40:09;;;;;;;20.50;3.33;;;;;;;7.77;81.89;101485.66;5008937;22;20246;-81
2024/01/25 01:42:35;;;;;;;19.30;3.73;;;;;;;7.78;81.58;101498.00;5005959;28;20234;-81
2024/01/25 01:45:02;;;;;;;12.70;4.20;;;;;;;7.77;82.19;101501.56;5000165;28;20631;-80
2024/01/25 01:47:29;;;;;;;19.33;4.13;;;;;;;7.75;82.59;101500.75;4999506;28;20638;-81
2024/01/25 01:49:57;;;;;;;16.57;3.30;;;;;;;7.74;81.58;101494.59;4997900;28;20652;-81
2024/01/25 01:52:23;;;;;;;17.60;4.23;;;;;;;7.73;81.97;101511.41;4994546;28;20242;-82
2024/01/25 01:54:50;;;;;;;19.37;3.90;;;;;;;7.75;81.71;101512.22;4998218;28;20218;-80
2024/01/25 01:57:17;;;;;;;19.33;4.20;;;;;;;7.76;82.59;101505.16;4999515;28;20692;-80
2024/01/25 01:59:43;;;;;;;13.57;4.33;;;;;;;7.77;82.60;101506.88;4996265;28;20218;-82
2024/01/25 02:02:09;;;;;;;19.17;4.57;;;;;;;7.74;82.09;101514.94;4998647;28;20227;-81
2024/01/25 02:04:35;;;;;;;12.87;2.97;;;;;;;7.70;82.03;101508.91;4998532;28;20206;-81
2024/01/25 02:07:03;;;;;;;20.50;3.87;;;;;;;7.68;81.79;101516.06;4999539;28;20239;-82
2024/01/25 02:09:30;;;;;;;18.03;3.63;;;;;;;7.68;81.35;101518.72;5000265;28;20203;-83
2024/01/25 02:12:01;;;;;;;23.07;4.47;;;;;;;7.67;81.86;101530.22;5004106;28;20230;-83
2024/01/25 02:14:27;;;;;;;17.93;3.47;;;;;;;7.68;81.86;101537.28;4996852;28;20262;-81
2024/01/25 02:16:54;;;;;;;17.37;3.43;;;;;;;7.69;81.45;101527.53;5005518;28;20234;-82
2024/01/25 02:19:20;;;;;;;13.23;3.33;;;;;;;7.69;81.53;101524.88;4998160;28;20219;-82
2024/01/25 02:21:48;;;;;;;24.70;3.60;;;;;;;7.68;81.65;101524.00;4998873;28;20227;-80
2024/01/25 02:24:16;;;;;;;20.77;4.90;;;;;;;7.66;81.72;101531.16;4994613;28;21042;-80
2024/01/25 02:26:42;;;;;;;21.60;4.20;;;;;;;7.65;82.10;101524.13;4998424;28;20200;-82
2024/01/25 02:29:09;;;;;;;16.90;3.93;;;;;;;7.65;81.61;101527.63;4997804;28;20199;-81
2024/01/25 02:31:38;;;;;;;10.57;2.93;;;;;;;7.62;82.21;101532.19;4994340;28;20255;-82
2024/01/25 02:34:04;;;;;;;23.87;3.83;;;;;;;7.61;81.78;101530.44;4997603;28;20215;-80
2024/01/25 02:36:30;;;;;;;16.43;4.00;;;;;;;7.61;82.03;101533.09;4998128;28;20231;-80
2024/01/25 02:38:57;;;;;;;12.43;3.27;;;;;;;7.63;82.10;101536.56;5001230;28;20211;-80
2024/01/25 02:41:25;;;;;;;14.00;3.63;;;;;;;7.60;82.13;101548.16;4998879;28;20230;-82
2024/01/25 02:43:51;;;;;;;16.57;3.63;;;;;;;7.61;82.62;101549.88;4997157;28;20286;-79
2024/01/25 02:46:18;;;;;;;19.37;4.47;;;;;;;7.57;82.70;101558.84;4999777;28;20203;-83
2024/01/25 02:48:44;;;;;;;14.63;3.23;;;;;;;7.57;82.67;101566.81;4994053;28;20204;-80
2024/01/25 02:51:10;;;;;;;18.17;3.57;;;;;;;7.57;82.50;101566.81;5000140;28;20218;-82
2024/01/25 02:53:37;;;;;;;14.97;3.50;;;;;;;7.61;82.63;101576.38;4991278;28;20204;-79
2024/01/25 02:56:04;;;;;;;22.70;3.80;;;;;;;7.57;82.40;101569.47;4995616;28;20246;-79
2024/01/25 02:58:32;;;;;;;17.87;3.80;;;;;;;7.57;81.83;101552.69;4992567;28;20209;-81
2024/01/25 03:00:58;;;;;;;19.30;4.10;;;;;;;7.55;82.68;101555.38;4993446;28;20211;-80
2024/01/25 03:03:24;;;;;;;14.93;3.13;;;;;;;7.50;82.31;101553.84;4998524;28;20214;-85
2024/01/25 03:05:52;;;;;;;20.77;4.73;;;;;;;7.49;82.90;101566.22;4996463;28;20794;-81
2024/01/25 03:08:19;;;;;;;15.27;3.43;;;;;;;7.49;83.02;101560.94;5002868;28;20204;-80
2024/01/25 03:10:49;;;;;;;16.97;3.93;;;;;;;7.50;83.02;101567.97;4997245;28;20211;-86
2024/01/25 03:13:16;;;;;;;22.63;4.60;;;;;;;7.52;82.54;101558.19;4998593;28;20754;-81
2024/01/25 03:15:44;;;;;;;16.20;3.97;;;;;;;7.48;82.89;101553.91;4995148;28;20211;-82
2024/01/25 03:18:10;;;;;;;11.27;3.50;;;;;;;7.48;83.10;101555.69;4995208;28;20242;-80
2024/01/25 03:20:37;;;;;;;15.63;3.20;;;;;;;7.44;83.36;101551.41;4997728;28;20207;-80
2024/01/25 03:23:03;;;;;;;14.93;3.87;;;;;;;7.46;83.87;101554.88;4999173;28;20231;-80
2024/01/25 03:25:31;;;;;;;15.70;3.40;;;;;;;7.44;83.43;101551.41;4997842;28;20207;-81
2024/01/25 03:27:57;;;;;;;18.27;4.07;;;;;;;7.43;84.27;101552.31;5002537;28;20211;-82
2024/01/25 03:30:24;;;;;;;12.33;3.40;;;;;;;7.42;83.69;101538.22;5001182;28;20585;-81
2024/01/25 03:32:52;;;;;;;17.60;3.53;;;;;;;7.41;82.90;101546.22;4998272;28;20263;-81
2024/01/25 03:35:18;;;;;;;13.83;3.33;;;;;;;7.39;83.04;101537.44;4999911;28;20222;-82
2024/01/25 03:37:45;;;;;;;13.47;3.30;;;;;;;7.37;82.81;101536.63;5003553;28;20227;-79
2024/01/25 03:40:11;;;;;;;11.90;2.80;;;;;;;7.35;82.98;101555.25;4998761;28;20227;-79
2024/01/25 03:42:38;;;;;;;19.03;3.80;;;;;;;7.31;83.55;101551.84;4997294;28;20600;-79
2024/01/25 03:45:05;;;;;;;14.83;3.03;;;;;;;7.30;83.76;101541.31;4995831;28;20696;-82
2024/01/25 03:47:32;;;;;;;15.80;3.73;;;;;;;7.25;83.59;101552.06;5007179;28;20221;-82
2024/01/25 03:50:00;;;;;;;18.53;4.37;;;;;;;7.23;83.59;101559.19;5006748;28;20206;-80
2024/01/25 03:52:29;;;;;;;9.33;3.17;;;;;;;7.25;83.87;101559.16;4997215;28;20227;-84
2024/01/25 03:54:56;;;;;;;16.37;3.63;;;;;;;7.20;83.67;101563.72;4997508;28;20281;-80
2024/01/25 03:57:22;;;;;;;11.00;3.30;;;;;;;7.20;83.81;101579.63;5005324;28;20252;-80
2024/01/25 03:59:49;;;;;;;13.80;3.13;;;;;;;7.13;84.05;101580.78;4998226;28;20208;-81
2024/01/25 04:02:15;;;;;;;15.13;3.17;;;;;;;7.10;84.41;101572.94;5004516;28;20227;-83
2024/01/25 04:04:42;;;;;;;16.57;3.50;;;;;;;7.08;83.94;101580.06;5007127;28;20233;-80
2024/01/25 04:07:09;;;;;;;19.63;4.63;;;;;;;7.07;84.45;101575.69;4998799;28;20214;-81
2024/01/25 04:09:37;;;;;;;20.00;3.20;;;;;;;7.06;84.69;101587.19;4993941;28;20215;-80
2024/01/25 04:12:03;;;;;;;16.83;3.63;;;;;;;7.05;85.31;101596.06;5004159;28;20226;-79
2024/01/25 04:14:30;;;;;;;21.37;4.40;;;;;;;7.00;84.96;101592.69;5005733;28;20207;-83
2024/01/25 04:16:56;;;;;;;16.97;3.20;;;;;;;6.97;84.98;101607.78;4996285;28;20219;-80
2024/01/25 04:19:24;;;;;;;11.13;3.20;;;;;;;6.94;85.31;101605.22;5002354;28;20218;-79
2024/01/25 04:21:50;;;;;;;16.07;3.73;;;;;;;6.94;86.34;101602.59;4996848;28;20239;-82
2024/01/25 04:24:18;;;;;;;23.80;4.07;;;;;;;6.95;86.42;101611.41;5000508;28;20210;-80
2024/01/25 04:26:44;;;;;;;16.27;3.00;;;;;;;6.92;85.86;101616.78;4997152;28;20227;-84
2024/01/25 04:29:11;;;;;;;13.90;3.03;;;;;;;6.91;86.11;101620.34;4998046;28;20207;-80
2024/01/25 04:31:43;;;;;;;17.27;3.30;;;;;;;6.92;86.30;101615.00;4997862;28;20691;-81
2024/01/25 04:34:10;;;;;;;20.30;3.90;;;;;;;6.92;86.44;101635.31;4997783;28;20200;-80
2024/01/25 04:36:36;;;;;;;9.87;2.80;;;;;;;6.91;86.78;101628.28;4999568;28;20234;-79
2024/01/25 04:39:03;;;;;;;18.57;4.97;;;;;;;6.90;86.58;101640.66;5004321;28;20219;-81
2024/01/25 04:41:31;;;;;;;16.33;3.10;;;;;;;6.91;87.25;101628.28;5000228;28;20223;-81
2024/01/25 04:43:57;;;;;;;15.93;3.67;;;;;;;6.86;86.73;101636.38;4996427;28;20207;-82
2024/01/25 04:46:23;;;;;;;18.97;3.77;;;;;;;6.86;87.42;101633.72;5004124;28;20210;-80
2024/01/25 04:48:50;;;;;;;17.73;3.50;;;;;;;6.87;87.18;101627.53;4996818;28;20203;-80
2024/01/25 04:51:17;;;;;;;16.07;4.50;;;;;;;6.89;87.93;101631.00;4999471;28;20220;-79
2024/01/25 04:53:43;;;;;;;15.83;3.20;;;;;;;6.90;87.66;101630.06;4992500;28;20231;-84
2024/01/25 04:56:10;;;;;;;17.43;3.43;;;;;;;6.88;88.26;101636.34;4996493;28;20211;-80
2024/01/25 04:58:38;;;;;;;15.00;3.70;;;;;;;6.85;87.56;101644.38;4990587;28;20213;-81
2024/01/25 05:01:06;;;;;;;20.13;3.07;;;;;;;6.85;88.17;101653.19;4997200;28;20216;-80
2024/01/25 05:03:33;;;;;;;20.17;4.27;;;;;;;6.83;87.88;101662.09;4994845;28;20199;-79
2024/01/25 05:05:59;;;;;;;13.17;3.03;;;;;;;6.82;88.62;101666.50;4997508;28;20674;-79
2024/01/25 05:08:26;;;;;;;19.17;4.10;;;;;;;6.83;88.33;101668.25;4994882;28;20207;-79
2024/01/25 05:10:52;;;;;;;15.23;3.53;;;;;;;6.81;88.40;101678.00;4995278;28;20212;-81
2024/01/25 05:13:19;;;;;;;17.40;3.83;;;;;;;6.82;88.00;101687.69;4996076;28;20212;-83
2024/01/25 05:15:47;;;;;;;15.40;3.90;;;;;;;6.79;88.46;101693.13;4995074;28;20212;-81
2024/01/25 05:18:13;;;;;;;14.37;3.53;;;;;;;6.80;89.16;101705.44;4994526;28;20224;-80
2024/01/25 05:20:40;;;;;;;16.83;4.20;;;;;;;6.82;88.54;101711.53;4997443;28;20199;-83
2024/01/25 05:23:06;;;;;;;15.97;2.87;;;;;;;6.83;88.52;101707.09;4992409;28;20238;-81
2024/01/25 05:25:33;;;;;;;23.40;4.10;;;;;;;6.82;88.08;101702.72;4994954;28;20218;-79
2024/01/25 05:28:00;;;;;;;17.37;3.87;;;;;;;6.80;88.58;101704.56;4997569;28;20195;-81
2024/01/25 05:30:27;;;;;;;16.60;3.80;;;;;;;6.73;89.17;101714.47;4995352;28;20211;-79
2024/01/25 05:32:55;;;;;;;14.03;3.37;;;;;;;6.73;88.75;101719.78;4997429;28;20222;-80
2024/01/25 05:35:21;;;;;;;19.40;5.17;;;;;;;6.76;88.80;101721.47;4991140;28;20212;-83
2024/01/25 05:37:48;;;;;;;16.90;3.67;;;;;;;6.78;88.48;101727.56;4997901;28;20581;-83
2024/01/25 05:40:15;;;;;;;17.77;3.87;;;;;;;6.75;88.54;101725.88;4990848;28;20208;-80
2024/01/25 05:42:41;;;;;;;17.97;3.20;;;;;;;6.74;89.04;101717.97;4999260;28;20223;-80
2024/01/25 05:45:08;;;;;;;17.83;3.63;;;;;;;6.74;89.03;101723.28;4990307;28;20218;-82
2024/01/25 05:47:35;;;;;;;17.57;3.90;;;;;;;6.72;88.28;101728.63;4997053;28;20211;-83
2024/01/25 05:50:04;;;;;;;20.53;3.60;;;;;;;6.68;89.15;101734.91;4998570;28;20226;-80
2024/01/25 05:52:31;;;;;;;15.57;4.60;;;;;;;6.68;88.99;101723.47;4994865;28;20323;-82
2024/01/25 05:54:57;;;;;;;21.27;4.67;;;;;;;6.68;88.88;101719.03;4999809;28;20206;-79
2024/01/25 05:57:23;;;;;;;19.00;3.63;;;;;;;6.66;88.66;101728.78;4998951;28;20227;-79
2024/01/25 05:59:50;;;;;;;14.53;3.70;;;;;;;6.66;89.10;101728.78;4997166;28;20676;-79
2024/01/25 06:02:16;;;;;;;16.00;3.07;;;;;;;6.61;89.30;101728.09;4992506;28;20910;-79
2024/01/25 06:04:43;;;;;;;15.70;2.80;;;;;;;6.65;88.94;101736.78;4995423;28;20208;-84
2024/01/25 06:07:11;;;;;;;17.67;3.03;;;;;;;6.61;89.46;101739.53;4999152;28;20221;-81
2024/01/25 06:09:38;;;;;;;16.40;3.63;;;;;;;6.61;89.26;101738.69;4998513;28;20234;-80
2024/01/25 06:12:05;;;;;;;13.13;3.97;;;;;;;6.59;89.82;101727.25;4994418;28;20706;-81
2024/01/25 06:14:31;;;;;;;10.33;3.03;;;;;;;6.60;89.51;101736.94;4994644;28;20204;-82
2024/01/25 06:16:58;;;;;;;15.10;2.87;;;;;;;6.56;88.99;101736.16;4999710;28;20232;-82
2024/01/25 06:19:24;;;;;;;19.47;3.77;;;;;;;6.53;88.73;101730.09;4999692;28;20207;-80
2024/01/25 06:21:51;;;;;;;16.80;3.70;;;;;;;6.53;88.85;101732.72;5000196;28;20219;-79
2024/01/25 06:24:19;;;;;;;13.83;3.67;;;;;;;6.50;89.42;101746.03;4996653;28;20280;-79
2024/01/25 06:26:45;;;;;;;14.37;2.87;;;;;;;6.46;90.00;101739.09;5001536;28;20210;-81
2024/01/25 06:29:12;;;;;;;19.93;3.20;;;;;;;6.46;89.92;101747.03;4995834;28;20208;-80
2024/01/25 06:31:42;;;;;;;15.27;3.60;;;;;;;6.48;89.96;101751.38;4994799;28;20224;-80
2024/01/25 06:34:09;;;;;;;20.50;3.40;;;;;;;6.45;89.51;101751.47;4997588;28;20559;-81
2024/01/25 06:36:35;;;;;;;19.03;4.03;;;;;;;6.38;89.17;101755.22;4996787;28;20211;-81
2024/01/25 06:39:04;;;;;;;17.70;3.50;;;;;;;6.40;90.44;101760.47;5001523;28;20214;-79
2024/01/25 06:41:31;;;;;;;18.70;3.83;;;;;;;6.37;90.19;101756.13;5003070;28;20233;-80
2024/01/25 06:43:58;;;;;;;20.53;4.03;;;;;;;6.37;90.25;101755.25;5001472;28;20210;-79
2024/01/25 06:46:24;;;;;;;18.80;3.60;;;;;;;6.38;90.03;101767.56;5004325;28;20204;-79
2024/01/25 06:48:51;;;;;;;12.40;3.10;;;;;;;6.37;89.88;101777.28;5001069;28;20692;-82
2024/01/25 06:51:18;;;;;;;21.10;4.23;;;;;;;6.34;90.27;101784.44;5000728;28;20230;-82
2024/01/25 06:53:45;;;;;;;18.40;3.07;;;;;;;6.32;90.68;101784.47;5001771;28;20203;-83
2024/01/25 06:56:11;;;;;;;20.53;3.63;;;;;;;6.32;91.25;101787.13;4991682;28;20868;-80
2024/01/25 06:58:39;;;;;;;12.73;3.20;;;;;;;6.28;91.29;101791.63;5000098;28;20234;-80
2024/01/25 07:01:05;;;;;;;24.53;5.20;;;;;;;6.28;91.18;101794.28;5001731;28;20207;-80
2024/01/25 07:03:32;;;;;;;14.03;4.03;;;;;;;6.28;91.67;101799.56;5003742;28;20216;-82
2024/01/25 07:05:58;;;;;;;13.77;3.77;;;;;;;6.27;91.50;101802.25;5002955;28;20204;-80
2024/01/25 07:08:25;;;;;;;14.70;3.57;;;;;;;6.28;91.92;101803.97;5000497;28;20211;-80
2024/01/25 07:10:51;;;;;;;15.63;3.83;;;;;;;6.25;91.87;101804.97;5001221;28;20215;-81
2024/01/25 07:13:18;;;;;;;15.50;3.60;;;;;;;6.26;91.78;101817.28;4999395;28;20242;-80
2024/01/25 07:15:45;;;;;;;16.13;3.43;;;;;;;6.24;91.94;101810.28;4998437;28;20208;-81
2024/01/25 07:18:12;;;;;;;16.63;3.47;;;;;;;6.24;92.20;101816.44;4994822;28;20235;-79
2024/01/25 07:20:38;;;;;;;15.23;3.63;;;;;;;6.24;92.08;101819.09;4995682;28;20207;-82
2024/01/25 07:23:05;;;;;;;19.30;4.10;;;;;;;6.24;91.84;101812.94;5003286;28;20242;-81
2024/01/25 07:25:31;;;;;;;15.53;3.90;;;;;;;6.21;92.01;101815.66;4993863;28;20215;-80
2024/01/25 07:27:58;;;;;;;16.47;3.60;;;;;;;6.19;91.69;101821.00;5002190;28;20207;-80
2024/01/25 07:30:24;;;;;;;16.23;3.63;;;;;;;6.18;92.19;101815.72;5000051;28;20203;-80
2024/01/25 07:32:52;;;;;;;20.57;4.73;;;;;;;6.17;92.12;101822.81;5000768;28;20231;-81
2024/01/25 07:35:18;;;;;;;17.40;4.00;;;;;;;6.18;92.78;101824.53;4996312;28;20210;-79
2024/01/25 07:37:45;;;;;;;18.77;4.33;;;;;;;6.18;92.74;101823.66;5000508;28;20223;-81
2024/01/25 07:40:12;;;;;;;17.80;4.13;;;;;;;6.17;92.62;101830.75;4999871;28;20222;-80
2024/01/25 07:42:39;;;;;;;14.67;4.23;;;;;;;6.18;93.00;101826.31;4994892;28;20219;-80
2024/01/25 07:45:06;;;;;;;20.50;4.60;;;;;;;6.19;92.69;101830.69;5002292;28;20226;-80
2024/01/25 07:47:33;;;;;;;18.33;3.97;;;;;;;6.16;93.29;101829.00;4998318;28;20683;-81
2024/01/25 07:50:01;;;;;;;14.93;3.57;;;;;;;6.15;93.14;101824.63;4998895;28;20298;-80
2024/01/25 07:52:28;;;;;;;23.40;4.33;;;;;;;6.14;93.76;101822.88;5001072;28;20251;-79
2024/01/25 07:54:54;;;;;;;16.93;4.17;;;;;;;6.14;93.43;101833.47;5002389;28;20300;-80
2024/01/25 07:57:21;;;;;;;16.77;3.33;;;;;;;6.14;94.23;101835.22;5000672;28;20223;-81
2024/01/25 07:59:47;;;;;;;21.77;3.50;;;;;;;6.16;93.64;101836.06;4998758;28;20219;-80
2024/01/25 08:02:14;;;;;;;13.87;3.97;;;;;;;6.17;94.23;101845.75;4999178;28;20231;-81
2024/01/25 08:04:40;;;;;;;21.67;3.83;;;;;;;6.16;93.81;101844.00;4999121;28;20204;-79
2024/01/25 08:07:08;;;;;;;21.67;4.23;;;;;;;6.17;94.05;101848.38;5001214;28;20902;-81
2024/01/25 08:09:35;;;;;;;18.23;4.13;;;;;;;6.17;94.17;101849.25;5000319;28;20234;-83
2024/01/25 08:12:01;;;;;;;23.70;4.47;;;;;;;6.18;94.45;101848.34;5000835;28;20227;-80
2024/01/25 08:14:27;;;;;;;16.97;3.17;;;;;;;6.22;94.36;101846.50;4995292;28;20203;-80
2024/01/25 08:16:55;;;;;;;21.57;4.03;;;;;;;6.21;94.34;101850.91;5002476;28;20202;-80
2024/01/25 08:19:21;;;;;;;14.33;3.70;;;;;;;6.23;93.78;101854.41;4995824;28;20224;-80
2024/01/25 08:21:48;;;;;;;22.20;4.67;;;;;;;6.23;93.59;101843.81;4994779;28;20236;-79
2024/01/25 08:24:16;;;;;;;18.10;3.90;;;;;;;6.22;94.55;101847.38;5000692;28;20211;-81
2024/01/25 08:26:42;;;;;;;15.93;3.57;;;;;;;6.25;94.73;101843.78;4997655;28;20200;-80
2024/01/25 08:29:08;;;;;;;17.80;4.27;;;;;;;6.26;94.58;101854.31;4997872;28;20209;-79
2024/01/25 08:31:35;;;;;;;19.13;3.67;;;;;;;6.31;94.31;101861.25;4994008;28;20229;-80
2024/01/25 08:34:01;;;;;;;13.60;3.40;;;;;;;6.31;94.32;101871.81;4996659;28;20596;-80
2024/01/25 08:36:28;;;;;;;17.47;3.47;;;;;;;6.31;94.20;101872.69;5001345;28;20823;-79
2024/01/25 08:38:54;;;;;;;17.80;3.60;;;;;;;6.33;94.37;101875.31;4999033;28;20234;-81
2024/01/25 08:41:22;;;;;;;21.97;3.57;;;;;;;6.33;94.58;101872.66;4998098;28;20231;-79
2024/01/25 08:43:48;;;;;;;13.33;3.57;;;;;;;6.32;94.61;101876.22;4996893;28;20209;-81
2024/01/25 08:46:16;;;;;;;15.77;3.07;;;;;;;6.32;94.15;101878.84;5002259;28;20215;-79
2024/01/25 08:48:42;;;;;;;16.13;3.20;;;;;;;6.35;94.65;101889.38;4995719;28;20351;-80
2024/01/25 08:51:09;;;;;;;15.77;5.00;;;;;;;6.38;94.23;101899.88;5003131;28;20211;-82
2024/01/25 08:53:35;;;;;;;15.37;3.47;;;;;;;6.39;94.57;101897.19;4997628;28;20329;-81
2024/01/25 08:56:02;;;;;;;19.70;4.60;;;;;;;6.41;94.68;101894.50;5000614;28;20203;-80
2024/01/25 08:58:29;;;;;;;13.43;3.17;;;;;;;6.46;94.52;101892.59;5000501;28;20232;-80
2024/01/25 09:00:56;;;;;;;20.20;4.60;;;;;;;6.46;93.97;101893.44;4997977;28;20203;-79
2024/01/25 09:03:23;;;;;;;16.60;3.60;;;;;;;6.48;93.64;101896.94;4999204;28;20223;-81
2024/01/25 09:05:50;;;;;;;17.30;3.93;;;;;;;6.48;93.20;101907.53;4999243;28;20204;-81
2024/01/25 09:08:16;;;;;;;20.50;4.50;;;;;;;6.51;93.40;101903.94;5000775;28;20247;-79
2024/01/25 09:10:44;;;;;;;16.50;3.50;;;;;;;6.51;93.24;101911.88;4995822;28;20219;-82
2024/01/25 09:13:11;;;;;;;16.70;3.30;;;;;;;6.54;92.41;101919.72;4999556;28;20239;-79
2024/01/25 09:15:39;;;;;;;17.17;4.30;;;;;;;6.52;92.91;101917.13;4994441;28;20199;-79
2024/01/25 09:18:06;;;;;;;16.37;4.17;;;;;;;6.56;93.42;101915.25;5001475;28;20249;-79
2024/01/25 09:20:32;;;;;;;13.63;3.50;;;;;;;6.57;92.47;101919.66;4997699;28;20335;-81
2024/01/25 09:22:59;;;;;;;14.80;3.50;;;;;;;6.56;93.01;101920.56;4997721;28;20238;-80
2024/01/25 09:25:25;;;;;;;20.50;4.00;;;;;;;6.56;93.51;101915.25;4995973;28;20203;-81
2024/01/25 09:27:52;;;;;;;16.83;4.30;;;;;;;6.57;93.33;101917.88;4999671;28;20196;-80
2024/01/25 09:30:19;;;;;;;16.63;4.27;;;;;;;6.59;93.47;101921.34;4993055;28;20211;-79
2024/01/25 09:32:47;;;;;;;17.83;3.70;;;;;;;6.62;93.52;101925.69;4998510;28;20231;-82
2024/01/25 09:35:13;;;;;;;19.20;4.10;;;;;;;6.61;93.17;101929.25;4999633;28;20684;-84
2024/01/25 09:37:40;;;;;;;19.10;4.27;;;;;;;6.62;92.64;101920.41;5002915;28;20211;-80
2024/01/25 09:40:08;;;;;;;20.17;4.47;;;;;;;6.63;93.00;101928.28;5003253;28;20221;-80
2024/01/25 09:42:35;;;;;;;17.97;4.10;;;;;;;6.66;92.79;101932.63;4996452;28;20223;-80
2024/01/25 09:45:03;;;;;;;18.53;3.60;;;;;;;6.67;92.91;101929.06;4998281;28;20291;-80
2024/01/25 09:47:30;;;;;;;16.07;4.20;;;;;;;6.70;92.46;101925.47;5000560;28;20219;-80
2024/01/25 09:49:58;;;;;;;20.17;4.03;;;;;;;6.70;93.04;101929.00;4999911;28;20207;-81
2024/01/25 09:52:25;;;;;;;17.13;4.60;;;;;;;6.75;93.31;101932.41;5000900;28;20227;-81
2024/01/25 09:54:54;;;;;;;23.10;5.70;;;;;;;6.83;92.57;101940.13;5003513;28;20281;-83
2024/01/25 09:57:26;;;;;;;16.67;3.77;;;;;;;6.83;92.57;101938.34;5002469;28;20215;-83
2024/01/25 09:59:53;;;;;;;11.53;3.57;;;;;;;6.90;91.76;101949.63;5003324;28;20539;-81
2024/01/25 10:02:20;;;;;;;14.93;4.70;;;;;;;6.94;91.82;101946.00;5004489;28;21148;-81
2024/01/25 10:04:50;;;;;;;16.37;4.33;;;;;;;6.96;90.86;101947.69;5003784;28;20204;-83
2024/01/25 10:07:35;;;;;;;19.60;4.30;;;;;;;7.02;90.85;101956.38;5006248;28;20257;-81
2024/01/25 10:10:02;;;;;;;11.37;4.13;;;;;;;7.03;90.75;101940.44;5002572;28;20652;-81
2024/01/25 10:12:28;;;;;;;14.40;4.47;;;;;;;7.06;90.35;101950.94;4998469;28;20242;-81
2024/01/25 10:14:55;;;;;;;16.63;4.50;;;;;;;7.08;90.54;101950.91;4997866;28;20216;-83
2024/01/25 10:17:21;;;;;;;15.67;4.07;;;;;;;7.12;90.08;101958.72;5008143;28;20215;-82
2024/01/25 10:19:48;;;;;;;14.70;5.73;;;;;;;7.14;89.49;101951.63;5002620;28;20227;-81
2024/01/25 10:22:15;;;;;;;17.23;4.50;;;;;;;7.19;88.93;101954.97;4997419;28;20232;-81
2024/01/25 10:24:43;;;;;;;16.20;5.23;;;;;;;7.21;88.00;101953.16;5005093;28;20291;-82
2024/01/25 10:27:09;;;;;;;17.83;4.63;;;;;;;7.25;89.03;101956.59;5001985;28;20228;-81
2024/01/25 10:29:36;;;;;;;27.60;6.03;;;;;;;7.31;88.46;101956.44;5002817;28;20214;-82
2024/01/25 10:32:04;;;;;;;19.73;4.73;;;;;;;7.37;88.44;101956.22;5005750;28;20219;-79
2024/01/25 10:34:31;;;;;;;13.83;4.23;;;;;;;7.36;88.19;101958.91;4995152;28;20271;-82
2024/01/25 10:36:58;;;;;;;14.83;4.07;;;;;;;7.38;88.33;101957.97;5004570;28;20213;-82
2024/01/25 10:39:25;;;;;;;16.07;4.70;;;;;;;7.42;88.49;101956.97;4998617;28;20227;-81
2024/01/25 10:41:54;;;;;;;10.37;4.10;;;;;;;7.52;88.47;101955.81;4997744;28;20844;-79
2024/01/25 10:44:21;;;;;;;18.10;4.37;;;;;;;7.55;87.67;101950.38;5001858;28;20231;-81
2024/01/25 10:46:49;;;;;;;13.37;3.73;;;;;;;7.58;86.88;101941.47;4998566;28;20196;-82
2024/01/25 10:49:15;;;;;;;14.40;4.03;;;;;;;7.58;86.33;101949.44;5003232;28;20207;-81
2024/01/25 10:51:42;;;;;;;18.27;4.57;;;;;;;7.61;86.89;101954.63;4999001;28;20227;-81
2024/01/25 10:54:09;;;;;;;16.57;3.77;;;;;;;7.64;85.59;101947.47;5003756;28;20215;-80
2024/01/25 10:56:36;;;;;;;16.20;4.50;;;;;;;7.65;85.62;101959.81;5000130;28;20207;-82
2024/01/25 10:59:06;;;;;;;14.43;4.23;;;;;;;7.64;84.90;101958.06;5001918;28;20232;-81
2024/01/25 11:01:34;;;;;;;18.80;3.30;;;;;;;7.64;85.78;101960.72;5000459;28;20230;-80
2024/01/25 11:04:01;;;;;;;12.63;3.43;;;;;;;7.68;85.25;101958.84;4998516;28;20208;-80
2024/01/25 11:06:28;;;;;;;13.97;3.80;;;;;;;7.72;84.86;101941.03;5000484;28;20208;-82
2024/01/25 11:09:05;;;;;;;15.47;3.90;;;;;;;7.67;84.12;101941.22;4998481;28;20209;-80
2024/01/25 11:11:32;;;;;;;14.03;3.67;;;;;;;7.62;84.72;101948.44;4994248;28;20216;-80
2024/01/25 11:14:00;;;;;;;11.33;3.40;;;;;;;7.64;84.74;101954.56;5000452;28;20865;-81
2024/01/25 11:16:31;;;;;;;14.50;3.67;;;;;;;7.66;86.04;101950.06;5002296;28;20241;-80
2024/01/25 11:19:04;;;;;;;16.77;3.77;;;;;;;7.70;85.43;101949.06;4989187;28;20224;-80
2024/01/25 11:21:40;;;;;;;17.67;3.70;;;;;;;7.72;85.66;101949.00;4998536;28;20251;-80
2024/01/25 11:24:13;;;;;;;16.63;3.97;;;;;;;7.76;85.37;101945.34;5003119;28;20202;-80